Rickenbacker AFB, Ohio
Current Conditions -  °F | °C
As of 10:55 PM on Saturday 22 Nov 2014 (Local Time) from KLCK Reporting Station
Light Rain Light Rain  
Wind Chill: 41°   Ceiling: 8000
Heat Index: 46°   Visibility: 10mi
Dew Point: 35°   Wind: 9mph
Humidity: 66%   Direction: 180°S
Pressure: 30.06"   Gusts: NA
Location:  39.8164°N, 82.9345°W
Report Text: KLCK 230355Z AUTO 18008KT 10SM -RA SCT070 OVC080 08/02 A3006 RMK AO2 T00750016
Loading
Personal Weather Stations






























Interactive Weather Map New forecast layout! Learn more

10-Day Weather Forecast

Advertisements
Track Severe Weather on mobile